sensor_id;sensor_type;location;lat;lon;timestamp;P1;durP1;ratioP1;P2;durP2;ratioP2
66073;SDS011;52859;48.104;11.574;2022-08-03T00:01:24;2.63;;;1.88;;
66073;SDS011;52859;48.104;11.574;2022-08-03T00:03:51;2.40;;;1.73;;
66073;SDS011;52859;48.104;11.574;2022-08-03T00:06:17;4.13;;;1.90;;
66073;SDS011;52859;48.104;11.574;2022-08-03T00:08:44;2.80;;;2.00;;
66073;SDS011;52859;48.104;11.574;2022-08-03T00:11:10;2.85;;;1.80;;
66073;SDS011;52859;48.104;11.574;2022-08-03T00:13:36;2.72;;;1.90;;
66073;SDS011;52859;48.104;11.574;2022-08-03T00:16:03;2.15;;;1.95;;
66073;SDS011;52859;48.104;11.574;2022-08-03T00:18:29;1.92;;;1.52;;
66073;SDS011;52859;48.104;11.574;2022-08-03T00:20:56;1.73;;;1.63;;
66073;SDS011;52859;48.104;11.574;2022-08-03T00:23:22;3.08;;;1.77;;
66073;SDS011;52859;48.104;11.574;2022-08-03T00:25:48;3.25;;;1.80;;
66073;SDS011;52859;48.104;11.574;2022-08-03T00:28:15;2.17;;;1.98;;
66073;SDS011;52859;48.104;11.574;2022-08-03T00:30:41;2.10;;;1.73;;
66073;SDS011;52859;48.104;11.574;2022-08-03T00:33:09;2.20;;;1.55;;
66073;SDS011;52859;48.104;11.574;2022-08-03T00:35:36;2.20;;;2.00;;
66073;SDS011;52859;48.104;11.574;2022-08-03T00:38:16;2.33;;;2.00;;
66073;SDS011;52859;48.104;11.574;2022-08-03T00:40:43;2.00;;;1.88;;
66073;SDS011;52859;48.104;11.574;2022-08-03T00:43:09;2.38;;;1.80;;
66073;SDS011;52859;48.104;11.574;2022-08-03T00:45:37;2.47;;;2.03;;
66073;SDS011;52859;48.104;11.574;2022-08-03T00:48:04;1.90;;;1.80;;
66073;SDS011;52859;48.104;11.574;2022-08-03T00:50:51;1.70;;;1.60;;
66073;SDS011;52859;48.104;11.574;2022-08-03T00:53:19;2.33;;;2.05;;
66073;SDS011;52859;48.104;11.574;2022-08-03T00:55:45;3.80;;;2.28;;
66073;SDS011;52859;48.104;11.574;2022-08-03T00:58:12;2.40;;;2.20;;
66073;SDS011;52859;48.104;11.574;2022-08-03T01:00:39;2.50;;;1.95;;
66073;SDS011;52859;48.104;11.574;2022-08-03T01:03:06;2.85;;;2.10;;
66073;SDS011;52859;48.104;11.574;2022-08-03T01:08:27;1.98;;;1.80;;
66073;SDS011;52859;48.104;11.574;2022-08-03T01:13:52;2.25;;;2.05;;
66073;SDS011;52859;48.104;11.574;2022-08-03T01:16:31;1.63;;;1.52;;
66073;SDS011;52859;48.104;11.574;2022-08-03T01:21:52;2.47;;;2.22;;
66073;SDS011;52859;48.104;11.574;2022-08-03T01:27:13;3.53;;;2.00;;
66073;SDS011;52859;48.104;11.574;2022-08-03T01:29:56;1.80;;;1.70;;
66073;SDS011;52859;48.104;11.574;2022-08-03T01:33:11;2.00;;;1.90;;
66073;SDS011;52859;48.104;11.574;2022-08-03T01:35:28;2.17;;;1.98;;
66073;SDS011;52859;48.104;11.574;2022-08-03T01:38:01;2.10;;;1.90;;
66073;SDS011;52859;48.104;11.574;2022-08-03T01:40:28;2.50;;;1.90;;
66073;SDS011;52859;48.104;11.574;2022-08-03T01:42:57;2.13;;;1.92;;
66073;SDS011;52859;48.104;11.574;2022-08-03T01:45:24;2.05;;;1.85;;
66073;SDS011;52859;48.104;11.574;2022-08-03T01:47:52;2.20;;;2.00;;
66073;SDS011;52859;48.104;11.574;2022-08-03T01:50:20;2.03;;;1.75;;
66073;SDS011;52859;48.104;11.574;2022-08-03T01:52:47;2.10;;;1.90;;
66073;SDS011;52859;48.104;11.574;2022-08-03T01:55:16;2.05;;;1.90;;
66073;SDS011;52859;48.104;11.574;2022-08-03T01:57:43;3.33;;;2.05;;
66073;SDS011;52859;48.104;11.574;2022-08-03T02:00:32;2.63;;;1.90;;
66073;SDS011;52859;48.104;11.574;2022-08-03T02:03:00;2.58;;;2.05;;
66073;SDS011;52859;48.104;11.574;2022-08-03T02:05:27;1.90;;;1.80;;
66073;SDS011;52859;48.104;11.574;2022-08-03T02:07:54;2.20;;;2.00;;
66073;SDS011;52859;48.104;11.574;2022-08-03T02:10:21;2.05;;;1.85;;
66073;SDS011;52859;48.104;11.574;2022-08-03T02:13:01;4.13;;;1.80;;
66073;SDS011;52859;48.104;11.574;2022-08-03T02:15:28;2.30;;;1.92;;
66073;SDS011;52859;48.104;11.574;2022-08-03T02:17:55;1.90;;;1.80;;
66073;SDS011;52859;48.104;11.574;2022-08-03T02:20:22;2.22;;;1.75;;
66073;SDS011;52859;48.104;11.574;2022-08-03T02:22:50;1.77;;;1.67;;
66073;SDS011;52859;48.104;11.574;2022-08-03T02:25:16;2.00;;;1.90;;
66073;SDS011;52859;48.104;11.574;2022-08-03T02:27:48;2.08;;;1.67;;
66073;SDS011;52859;48.104;11.574;2022-08-03T02:30:17;2.10;;;1.95;;
66073;SDS011;52859;48.104;11.574;2022-08-03T02:32:45;2.95;;;1.85;;
66073;SDS011;52859;48.104;11.574;2022-08-03T02:35:14;2.05;;;1.85;;
66073;SDS011;52859;48.104;11.574;2022-08-03T02:37:49;1.95;;;1.80;;
66073;SDS011;52859;48.104;11.574;2022-08-03T02:40:16;1.95;;;1.85;;
66073;SDS011;52859;48.104;11.574;2022-08-03T02:42:44;2.17;;;2.05;;
66073;SDS011;52859;48.104;11.574;2022-08-03T02:45:11;2.78;;;1.70;;
66073;SDS011;52859;48.104;11.574;2022-08-03T02:47:40;2.47;;;2.17;;
66073;SDS011;52859;48.104;11.574;2022-08-03T02:50:21;2.30;;;2.05;;
66073;SDS011;52859;48.104;11.574;2022-08-03T02:52:48;2.80;;;2.03;;
66073;SDS011;52859;48.104;11.574;2022-08-03T02:55:16;3.88;;;2.10;;
66073;SDS011;52859;48.104;11.574;2022-08-03T02:57:43;1.95;;;1.85;;
66073;SDS011;52859;48.104;11.574;2022-08-03T03:00:10;2.40;;;2.20;;
66073;SDS011;52859;48.104;11.574;2022-08-03T03:02:38;1.90;;;1.80;;
66073;SDS011;52859;48.104;11.574;2022-08-03T03:05:09;3.65;;;2.03;;
66073;SDS011;52859;48.104;11.574;2022-08-03T03:07:55;3.10;;;2.00;;
66073;SDS011;52859;48.104;11.574;2022-08-03T03:10:22;2.50;;;2.00;;
66073;SDS011;52859;48.104;11.574;2022-08-03T03:12:50;2.42;;;1.98;;
66073;SDS011;52859;48.104;11.574;2022-08-03T03:15:17;2.45;;;1.98;;
66073;SDS011;52859;48.104;11.574;2022-08-03T03:17:44;2.08;;;1.95;;
66073;SDS011;52859;48.104;11.574;2022-08-03T03:20:10;3.45;;;1.83;;
66073;SDS011;52859;48.104;11.574;2022-08-03T03:22:37;2.30;;;2.10;;
66073;SDS011;52859;48.104;11.574;2022-08-03T03:25:05;2.55;;;2.05;;
66073;SDS011;52859;48.104;11.574;2022-08-03T03:27:31;2.10;;;1.98;;
66073;SDS011;52859;48.104;11.574;2022-08-03T03:29:59;2.50;;;2.13;;
66073;SDS011;52859;48.104;11.574;2022-08-03T03:32:26;2.15;;;1.95;;
66073;SDS011;52859;48.104;11.574;2022-08-03T03:34:53;2.33;;;2.13;;
66073;SDS011;52859;48.104;11.574;2022-08-03T03:37:19;2.63;;;2.20;;
66073;SDS011;52859;48.104;11.574;2022-08-03T03:39:46;2.33;;;2.13;;
66073;SDS011;52859;48.104;11.574;2022-08-03T03:42:12;2.08;;;1.90;;
66073;SDS011;52859;48.104;11.574;2022-08-03T03:44:39;2.28;;;2.08;;
66073;SDS011;52859;48.104;11.574;2022-08-03T03:47:05;5.13;;;2.22;;
66073;SDS011;52859;48.104;11.574;2022-08-03T03:49:32;2.13;;;1.92;;
66073;SDS011;52859;48.104;11.574;2022-08-03T03:51:59;2.55;;;2.00;;
66073;SDS011;52859;48.104;11.574;2022-08-03T03:54:25;3.17;;;2.15;;
66073;SDS011;52859;48.104;11.574;2022-08-03T03:56:54;2.42;;;2.20;;
66073;SDS011;52859;48.104;11.574;2022-08-03T03:59:21;2.40;;;2.08;;
66073;SDS011;52859;48.104;11.574;2022-08-03T04:01:47;2.08;;;1.95;;
66073;SDS011;52859;48.104;11.574;2022-08-03T04:04:24;2.13;;;1.92;;
66073;SDS011;52859;48.104;11.574;2022-08-03T04:07:09;2.75;;;2.17;;
66073;SDS011;52859;48.104;11.574;2022-08-03T04:09:54;3.92;;;1.95;;
66073;SDS011;52859;48.104;11.574;2022-08-03T04:12:40;2.58;;;2.42;;
66073;SDS011;52859;48.104;11.574;2022-08-03T04:15:17;3.97;;;2.20;;
66073;SDS011;52859;48.104;11.574;2022-08-03T04:17:44;2.13;;;2.03;;
66073;SDS011;52859;48.104;11.574;2022-08-03T04:20:11;2.00;;;1.90;;
66073;SDS011;52859;48.104;11.574;2022-08-03T04:22:38;2.47;;;2.13;;
66073;SDS011;52859;48.104;11.574;2022-08-03T04:25:06;2.53;;;2.33;;
66073;SDS011;52859;48.104;11.574;2022-08-03T04:27:35;2.55;;;2.35;;
66073;SDS011;52859;48.104;11.574;2022-08-03T04:30:03;2.40;;;2.20;;
66073;SDS011;52859;48.104;11.574;2022-08-03T04:32:30;2.78;;;2.55;;
66073;SDS011;52859;48.104;11.574;2022-08-03T04:34:56;2.20;;;2.10;;
66073;SDS011;52859;48.104;11.574;2022-08-03T04:37:32;3.42;;;2.67;;
66073;SDS011;52859;48.104;11.574;2022-08-03T04:40:00;4.70;;;2.40;;
66073;SDS011;52859;48.104;11.574;2022-08-03T04:42:28;2.63;;;2.42;;
66073;SDS011;52859;48.104;11.574;2022-08-03T04:44:56;3.60;;;2.40;;
66073;SDS011;52859;48.104;11.574;2022-08-03T04:47:27;4.07;;;2.55;;
66073;SDS011;52859;48.104;11.574;2022-08-03T04:49:53;2.88;;;2.25;;
66073;SDS011;52859;48.104;11.574;2022-08-03T04:52:20;4.45;;;2.58;;
66073;SDS011;52859;48.104;11.574;2022-08-03T04:54:46;2.42;;;2.20;;
66073;SDS011;52859;48.104;11.574;2022-08-03T04:57:16;2.38;;;2.17;;
66073;SDS011;52859;48.104;11.574;2022-08-03T04:59:52;2.38;;;2.17;;
66073;SDS011;52859;48.104;11.574;2022-08-03T05:02:28;4.07;;;1.90;;
66073;SDS011;52859;48.104;11.574;2022-08-03T05:04:54;2.40;;;2.15;;
66073;SDS011;52859;48.104;11.574;2022-08-03T05:07:20;2.63;;;2.03;;
66073;SDS011;52859;48.104;11.574;2022-08-03T05:09:50;3.10;;;2.35;;
66073;SDS011;52859;48.104;11.574;2022-08-03T05:12:22;2.17;;;1.92;;
66073;SDS011;52859;48.104;11.574;2022-08-03T05:14:49;2.10;;;1.90;;
66073;SDS011;52859;48.104;11.574;2022-08-03T05:17:15;2.17;;;2.00;;
66073;SDS011;52859;48.104;11.574;2022-08-03T05:19:42;1.98;;;1.80;;
66073;SDS011;52859;48.104;11.574;2022-08-03T05:22:08;2.42;;;2.10;;
66073;SDS011;52859;48.104;11.574;2022-08-03T05:24:34;2.28;;;2.08;;
66073;SDS011;52859;48.104;11.574;2022-08-03T05:27:01;2.30;;;2.10;;
66073;SDS011;52859;48.104;11.574;2022-08-03T05:29:27;2.00;;;1.90;;
66073;SDS011;52859;48.104;11.574;2022-08-03T05:31:54;2.28;;;1.85;;
66073;SDS011;52859;48.104;11.574;2022-08-03T05:34:20;1.90;;;1.80;;
66073;SDS011;52859;48.104;11.574;2022-08-03T05:36:46;2.45;;;1.92;;
66073;SDS011;52859;48.104;11.574;2022-08-03T05:39:13;1.98;;;1.60;;
66073;SDS011;52859;48.104;11.574;2022-08-03T05:41:39;2.20;;;1.85;;
66073;SDS011;52859;48.104;11.574;2022-08-03T05:44:06;2.25;;;2.00;;
66073;SDS011;52859;48.104;11.574;2022-08-03T05:46:32;2.42;;;1.75;;
66073;SDS011;52859;48.104;11.574;2022-08-03T05:48:58;2.00;;;1.90;;
66073;SDS011;52859;48.104;11.574;2022-08-03T05:51:25;3.65;;;1.77;;
66073;SDS011;52859;48.104;11.574;2022-08-03T05:53:51;2.35;;;1.83;;
66073;SDS011;52859;48.104;11.574;2022-08-03T05:56:20;2.28;;;2.03;;
66073;SDS011;52859;48.104;11.574;2022-08-03T05:58:46;2.92;;;1.90;;
66073;SDS011;52859;48.104;11.574;2022-08-03T06:01:14;2.05;;;1.85;;
66073;SDS011;52859;48.104;11.574;2022-08-03T06:03:40;3.15;;;1.65;;
66073;SDS011;52859;48.104;11.574;2022-08-03T06:06:07;2.78;;;1.92;;
66073;SDS011;52859;48.104;11.574;2022-08-03T06:08:33;2.35;;;2.15;;
66073;SDS011;52859;48.104;11.574;2022-08-03T06:10:59;2.40;;;2.03;;
66073;SDS011;52859;48.104;11.574;2022-08-03T06:13:26;3.63;;;2.00;;
66073;SDS011;52859;48.104;11.574;2022-08-03T06:15:52;2.05;;;1.85;;
66073;SDS011;52859;48.104;11.574;2022-08-03T06:18:19;1.70;;;1.60;;
66073;SDS011;52859;48.104;11.574;2022-08-03T06:20:45;2.95;;;1.77;;
66073;SDS011;52859;48.104;11.574;2022-08-03T06:23:14;1.80;;;1.67;;
66073;SDS011;52859;48.104;11.574;2022-08-03T06:25:43;2.58;;;1.77;;
66073;SDS011;52859;48.104;11.574;2022-08-03T06:28:10;1.85;;;1.75;;
66073;SDS011;52859;48.104;11.574;2022-08-03T06:30:57;2.90;;;1.90;;
66073;SDS011;52859;48.104;11.574;2022-08-03T06:33:24;2.40;;;1.63;;
66073;SDS011;52859;48.104;11.574;2022-08-03T06:36:11;2.83;;;1.85;;
66073;SDS011;52859;48.104;11.574;2022-08-03T06:38:37;2.13;;;1.83;;
66073;SDS011;52859;48.104;11.574;2022-08-03T06:41:04;2.83;;;1.50;;
66073;SDS011;52859;48.104;11.574;2022-08-03T06:43:30;1.70;;;1.60;;
66073;SDS011;52859;48.104;11.574;2022-08-03T06:46:01;5.72;;;1.55;;
66073;SDS011;52859;48.104;11.574;2022-08-03T06:48:27;2.00;;;1.65;;
66073;SDS011;52859;48.104;11.574;2022-08-03T06:50:53;4.38;;;2.08;;
66073;SDS011;52859;48.104;11.574;2022-08-03T06:53:20;2.03;;;1.83;;
66073;SDS011;52859;48.104;11.574;2022-08-03T06:55:47;3.58;;;1.60;;
66073;SDS011;52859;48.104;11.574;2022-08-03T06:58:19;2.92;;;1.60;;
66073;SDS011;52859;48.104;11.574;2022-08-03T07:00:46;2.65;;;1.98;;
66073;SDS011;52859;48.104;11.574;2022-08-03T07:03:12;2.17;;;1.77;;
66073;SDS011;52859;48.104;11.574;2022-08-03T07:05:39;1.77;;;1.67;;
66073;SDS011;52859;48.104;11.574;2022-08-03T07:08:06;3.10;;;1.48;;
66073;SDS011;52859;48.104;11.574;2022-08-03T07:10:33;2.50;;;1.60;;
66073;SDS011;52859;48.104;11.574;2022-08-03T07:12:59;4.03;;;1.63;;
66073;SDS011;52859;48.104;11.574;2022-08-03T07:15:25;2.47;;;1.60;;
66073;SDS011;52859;48.104;11.574;2022-08-03T07:18:12;1.85;;;1.45;;
66073;SDS011;52859;48.104;11.574;2022-08-03T07:20:38;1.20;;;1.10;;
66073;SDS011;52859;48.104;11.574;2022-08-03T07:23:05;3.85;;;1.63;;
66073;SDS011;52859;48.104;11.574;2022-08-03T07:25:31;1.67;;;1.50;;
66073;SDS011;52859;48.104;11.574;2022-08-03T07:27:58;1.15;;;1.08;;
66073;SDS011;52859;48.104;11.574;2022-08-03T07:30:24;3.80;;;1.45;;
66073;SDS011;52859;48.104;11.574;2022-08-03T07:32:51;2.15;;;1.73;;
66073;SDS011;52859;48.104;11.574;2022-08-03T07:35:17;1.42;;;1.17;;
66073;SDS011;52859;48.104;11.574;2022-08-03T07:37:50;1.23;;;1.13;;
66073;SDS011;52859;48.104;11.574;2022-08-03T07:40:20;2.25;;;1.65;;
66073;SDS011;52859;48.104;11.574;2022-08-03T07:42:47;2.63;;;1.27;;
66073;SDS011;52859;48.104;11.574;2022-08-03T07:45:17;1.45;;;1.25;;
66073;SDS011;52859;48.104;11.574;2022-08-03T07:47:43;2.67;;;1.42;;
66073;SDS011;52859;48.104;11.574;2022-08-03T07:50:18;3.63;;;1.20;;
66073;SDS011;52859;48.104;11.574;2022-08-03T07:52:45;1.40;;;1.25;;
66073;SDS011;52859;48.104;11.574;2022-08-03T07:55:19;1.92;;;1.30;;
66073;SDS011;52859;48.104;11.574;2022-08-03T07:57:46;1.50;;;1.25;;
66073;SDS011;52859;48.104;11.574;2022-08-03T08:00:14;3.05;;;1.35;;
66073;SDS011;52859;48.104;11.574;2022-08-03T08:02:42;2.42;;;1.35;;
66073;SDS011;52859;48.104;11.574;2022-08-03T08:05:08;3.60;;;0.98;;
66073;SDS011;52859;48.104;11.574;2022-08-03T08:07:36;1.80;;;1.30;;
66073;SDS011;52859;48.104;11.574;2022-08-03T08:10:04;1.35;;;1.08;;
66073;SDS011;52859;48.104;11.574;2022-08-03T08:12:30;1.80;;;1.60;;
66073;SDS011;52859;48.104;11.574;2022-08-03T08:14:57;3.55;;;1.23;;
66073;SDS011;52859;48.104;11.574;2022-08-03T08:17:23;2.17;;;1.10;;
66073;SDS011;52859;48.104;11.574;2022-08-03T08:19:50;1.15;;;1.02;;
66073;SDS011;52859;48.104;11.574;2022-08-03T08:22:18;1.23;;;1.00;;
66073;SDS011;52859;48.104;11.574;2022-08-03T08:24:56;2.70;;;1.27;;
66073;SDS011;52859;48.104;11.574;2022-08-03T08:27:22;1.48;;;0.63;;
66073;SDS011;52859;48.104;11.574;2022-08-03T08:29:49;1.60;;;1.48;;
66073;SDS011;52859;48.104;11.574;2022-08-03T08:32:21;2.28;;;0.90;;
66073;SDS011;52859;48.104;11.574;2022-08-03T08:34:48;1.10;;;0.93;;
66073;SDS011;52859;48.104;11.574;2022-08-03T08:37:14;2.25;;;1.13;;
66073;SDS011;52859;48.104;11.574;2022-08-03T08:39:41;1.38;;;1.02;;
66073;SDS011;52859;48.104;11.574;2022-08-03T08:42:08;2.90;;;1.00;;
66073;SDS011;52859;48.104;11.574;2022-08-03T08:44:34;2.75;;;1.00;;
66073;SDS011;52859;48.104;11.574;2022-08-03T08:47:01;1.17;;;1.17;;
66073;SDS011;52859;48.104;11.574;2022-08-03T08:49:28;1.77;;;1.10;;
66073;SDS011;52859;48.104;11.574;2022-08-03T08:51:54;1.75;;;0.70;;
66073;SDS011;52859;48.104;11.574;2022-08-03T08:54:26;1.10;;;1.00;;
66073;SDS011;52859;48.104;11.574;2022-08-03T08:56:55;3.05;;;1.10;;
66073;SDS011;52859;48.104;11.574;2022-08-03T08:59:23;1.10;;;0.80;;
66073;SDS011;52859;48.104;11.574;2022-08-03T09:01:49;1.45;;;0.90;;
66073;SDS011;52859;48.104;11.574;2022-08-03T09:04:15;3.40;;;0.90;;
66073;SDS011;52859;48.104;11.574;2022-08-03T09:06:42;0.73;;;0.70;;
66073;SDS011;52859;48.104;11.574;2022-08-03T09:09:29;1.13;;;0.80;;
66073;SDS011;52859;48.104;11.574;2022-08-03T09:12:16;0.90;;;0.90;;
66073;SDS011;52859;48.104;11.574;2022-08-03T09:15:18;0.80;;;0.80;;
66073;SDS011;52859;48.104;11.574;2022-08-03T09:17:46;0.75;;;0.70;;
66073;SDS011;52859;48.104;11.574;2022-08-03T09:20:17;2.03;;;0.90;;
66073;SDS011;52859;48.104;11.574;2022-08-03T09:25:49;2.33;;;0.85;;
66073;SDS011;52859;48.104;11.574;2022-08-03T09:28:24;2.00;;;0.80;;
66073;SDS011;52859;48.104;11.574;2022-08-03T09:31:18;3.05;;;0.95;;
66073;SDS011;52859;48.104;11.574;2022-08-03T09:33:47;0.80;;;0.80;;
66073;SDS011;52859;48.104;11.574;2022-08-03T09:39:20;0.90;;;0.80;;
66073;SDS011;52859;48.104;11.574;2022-08-03T09:42:14;0.70;;;0.70;;
66073;SDS011;52859;48.104;11.574;2022-08-03T09:44:41;1.20;;;0.82;;
66073;SDS011;52859;48.104;11.574;2022-08-03T09:47:09;2.60;;;1.13;;
66073;SDS011;52859;48.104;11.574;2022-08-03T09:49:39;0.85;;;0.70;;
66073;SDS011;52859;48.104;11.574;2022-08-03T09:52:13;0.95;;;0.80;;
66073;SDS011;52859;48.104;11.574;2022-08-03T09:55:00;0.75;;;0.75;;
66073;SDS011;52859;48.104;11.574;2022-08-03T09:57:28;1.58;;;0.80;;
66073;SDS011;52859;48.104;11.574;2022-08-03T10:00:04;0.55;;;0.55;;
66073;SDS011;52859;48.104;11.574;2022-08-03T10:02:43;1.88;;;0.85;;
66073;SDS011;52859;48.104;11.574;2022-08-03T10:05:11;0.75;;;0.75;;
66073;SDS011;52859;48.104;11.574;2022-08-03T10:07:46;2.35;;;0.80;;
66073;SDS011;52859;48.104;11.574;2022-08-03T10:10:13;2.85;;;0.82;;
66073;SDS011;52859;48.104;11.574;2022-08-03T10:12:57;1.17;;;0.80;;
66073;SDS011;52859;48.104;11.574;2022-08-03T10:15:24;1.00;;;0.90;;
66073;SDS011;52859;48.104;11.574;2022-08-03T10:18:11;0.80;;;0.80;;
66073;SDS011;52859;48.104;11.574;2022-08-03T10:23:34;0.70;;;0.70;;
66073;SDS011;52859;48.104;11.574;2022-08-03T10:26:01;0.85;;;0.70;;
66073;SDS011;52859;48.104;11.574;2022-08-03T10:28:31;1.92;;;0.82;;
66073;SDS011;52859;48.104;11.574;2022-08-03T10:30:59;2.33;;;1.00;;
66073;SDS011;52859;48.104;11.574;2022-08-03T10:33:27;1.05;;;0.60;;
66073;SDS011;52859;48.104;11.574;2022-08-03T10:36:13;0.85;;;0.60;;
66073;SDS011;52859;48.104;11.574;2022-08-03T10:38:46;1.17;;;0.90;;
66073;SDS011;52859;48.104;11.574;2022-08-03T10:41:14;0.90;;;0.77;;
66073;SDS011;52859;48.104;11.574;2022-08-03T10:43:46;0.60;;;0.60;;
66073;SDS011;52859;48.104;11.574;2022-08-03T10:46:16;2.42;;;0.70;;
66073;SDS011;52859;48.104;11.574;2022-08-03T10:48:44;0.88;;;0.75;;
66073;SDS011;52859;48.104;11.574;2022-08-03T10:51:11;1.33;;;0.70;;
66073;SDS011;52859;48.104;11.574;2022-08-03T10:53:41;1.80;;;0.60;;
66073;SDS011;52859;48.104;11.574;2022-08-03T11:00:02;0.65;;;0.65;;
66073;SDS011;52859;48.104;11.574;2022-08-03T11:02:09;2.05;;;0.93;;
66073;SDS011;52859;48.104;11.574;2022-08-03T11:04:35;2.45;;;1.20;;
66073;SDS011;52859;48.104;11.574;2022-08-03T11:07:21;1.65;;;1.13;;
66073;SDS011;52859;48.104;11.574;2022-08-03T11:09:52;0.80;;;0.80;;
66073;SDS011;52859;48.104;11.574;2022-08-03T11:12:25;1.67;;;0.77;;
66073;SDS011;52859;48.104;11.574;2022-08-03T11:15:00;1.05;;;0.77;;
66073;SDS011;52859;48.104;11.574;2022-08-03T11:17:27;1.80;;;0.93;;
66073;SDS011;52859;48.104;11.574;2022-08-03T11:19:53;2.15;;;0.90;;
66073;SDS011;52859;48.104;11.574;2022-08-03T11:22:23;0.98;;;0.80;;
66073;SDS011;52859;48.104;11.574;2022-08-03T11:27:19;1.13;;;0.70;;
66073;SDS011;52859;48.104;11.574;2022-08-03T11:29:57;1.80;;;0.65;;
66073;SDS011;52859;48.104;11.574;2022-08-03T11:35:56;0.75;;;0.75;;
66073;SDS011;52859;48.104;11.574;2022-08-03T11:45:55;0.93;;;0.73;;
66073;SDS011;52859;48.104;11.574;2022-08-03T11:48:22;1.10;;;0.80;;
66073;SDS011;52859;48.104;11.574;2022-08-03T11:50:51;0.85;;;0.65;;
66073;SDS011;52859;48.104;11.574;2022-08-03T11:53:18;1.08;;;0.70;;
66073;SDS011;52859;48.104;11.574;2022-08-03T11:55:45;0.70;;;0.70;;
66073;SDS011;52859;48.104;11.574;2022-08-03T11:58:20;2.10;;;0.88;;
66073;SDS011;52859;48.104;11.574;2022-08-03T12:01:07;0.70;;;0.70;;
66073;SDS011;52859;48.104;11.574;2022-08-03T12:03:35;0.70;;;0.63;;
66073;SDS011;52859;48.104;11.574;2022-08-03T12:06:02;0.90;;;0.70;;
66073;SDS011;52859;48.104;11.574;2022-08-03T12:08:34;0.65;;;0.57;;
66073;SDS011;52859;48.104;11.574;2022-08-03T12:11:02;1.73;;;0.70;;
66073;SDS011;52859;48.104;11.574;2022-08-03T12:13:35;2.00;;;0.73;;
66073;SDS011;52859;48.104;11.574;2022-08-03T12:16:23;1.70;;;0.80;;
66073;SDS011;52859;48.104;11.574;2022-08-03T12:19:00;1.17;;;0.80;;
66073;SDS011;52859;48.104;11.574;2022-08-03T12:21:27;0.80;;;0.80;;
66073;SDS011;52859;48.104;11.574;2022-08-03T12:24:01;0.82;;;0.82;;
66073;SDS011;52859;48.104;11.574;2022-08-03T12:26:28;2.30;;;0.80;;
66073;SDS011;52859;48.104;11.574;2022-08-03T12:28:55;1.50;;;0.98;;
66073;SDS011;52859;48.104;11.574;2022-08-03T12:31:22;1.00;;;0.95;;
66073;SDS011;52859;48.104;11.574;2022-08-03T12:33:55;0.80;;;0.80;;
66073;SDS011;52859;48.104;11.574;2022-08-03T12:36:24;1.15;;;0.80;;
66073;SDS011;52859;48.104;11.574;2022-08-03T12:38:55;2.42;;;0.95;;
66073;SDS011;52859;48.104;11.574;2022-08-03T12:41:29;1.05;;;0.88;;
66073;SDS011;52859;48.104;11.574;2022-08-03T12:43:55;1.15;;;0.85;;
66073;SDS011;52859;48.104;11.574;2022-08-03T12:46:22;1.00;;;1.00;;
66073;SDS011;52859;48.104;11.574;2022-08-03T12:49:01;0.98;;;0.82;;
66073;SDS011;52859;48.104;11.574;2022-08-03T12:51:28;1.45;;;0.90;;
66073;SDS011;52859;48.104;11.574;2022-08-03T12:53:55;0.88;;;0.88;;
66073;SDS011;52859;48.104;11.574;2022-08-03T12:56:22;1.20;;;1.10;;
66073;SDS011;52859;48.104;11.574;2022-08-03T12:58:48;1.55;;;0.77;;
66073;SDS011;52859;48.104;11.574;2022-08-03T13:01:15;0.80;;;0.80;;
66073;SDS011;52859;48.104;11.574;2022-08-03T13:03:45;1.08;;;0.95;;
66073;SDS011;52859;48.104;11.574;2022-08-03T13:06:16;1.17;;;0.88;;
66073;SDS011;52859;48.104;11.574;2022-08-03T13:08:43;1.40;;;0.88;;
66073;SDS011;52859;48.104;11.574;2022-08-03T13:11:21;1.70;;;0.80;;
66073;SDS011;52859;48.104;11.574;2022-08-03T13:14:08;1.70;;;0.90;;
66073;SDS011;52859;48.104;11.574;2022-08-03T13:16:40;0.80;;;0.80;;
66073;SDS011;52859;48.104;11.574;2022-08-03T13:19:06;0.90;;;0.75;;
66073;SDS011;52859;48.104;11.574;2022-08-03T13:21:41;2.03;;;0.80;;
66073;SDS011;52859;48.104;11.574;2022-08-03T13:24:28;1.75;;;0.80;;
66073;SDS011;52859;48.104;11.574;2022-08-03T13:26:55;0.82;;;0.73;;
66073;SDS011;52859;48.104;11.574;2022-08-03T13:29:22;0.70;;;0.70;;
66073;SDS011;52859;48.104;11.574;2022-08-03T13:31:48;0.82;;;0.70;;
66073;SDS011;52859;48.104;11.574;2022-08-03T13:34:16;0.50;;;0.50;;
66073;SDS011;52859;48.104;11.574;2022-08-03T13:36:48;1.20;;;0.73;;
66073;SDS011;52859;48.104;11.574;2022-08-03T13:39:34;0.90;;;0.85;;
66073;SDS011;52859;48.104;11.574;2022-08-03T13:42:21;2.70;;;0.80;;
66073;SDS011;52859;48.104;11.574;2022-08-03T13:44:47;1.27;;;0.75;;
66073;SDS011;52859;48.104;11.574;2022-08-03T13:47:14;2.47;;;0.65;;
66073;SDS011;52859;48.104;11.574;2022-08-03T13:49:40;1.65;;;0.80;;
66073;SDS011;52859;48.104;11.574;2022-08-03T13:52:19;2.15;;;0.80;;
66073;SDS011;52859;48.104;11.574;2022-08-03T13:54:46;2.30;;;0.80;;
66073;SDS011;52859;48.104;11.574;2022-08-03T13:57:13;0.90;;;0.73;;
66073;SDS011;52859;48.104;11.574;2022-08-03T14:00:00;0.80;;;0.70;;
66073;SDS011;52859;48.104;11.574;2022-08-03T14:02:29;0.82;;;0.73;;
66073;SDS011;52859;48.104;11.574;2022-08-03T14:04:55;1.05;;;0.75;;
66073;SDS011;52859;48.104;11.574;2022-08-03T14:07:22;1.35;;;0.85;;
66073;SDS011;52859;48.104;11.574;2022-08-03T14:09:48;2.25;;;0.73;;
66073;SDS011;52859;48.104;11.574;2022-08-03T14:12:14;0.95;;;0.77;;
66073;SDS011;52859;48.104;11.574;2022-08-03T14:14:41;0.98;;;0.80;;
66073;SDS011;52859;48.104;11.574;2022-08-03T14:17:07;2.83;;;0.70;;
66073;SDS011;52859;48.104;11.574;2022-08-03T14:19:34;1.55;;;0.68;;
66073;SDS011;52859;48.104;11.574;2022-08-03T14:22:18;2.08;;;0.82;;
66073;SDS011;52859;48.104;11.574;2022-08-03T14:24:45;1.33;;;0.80;;
66073;SDS011;52859;48.104;11.574;2022-08-03T14:27:11;1.23;;;0.93;;
66073;SDS011;52859;48.104;11.574;2022-08-03T14:29:38;2.67;;;0.90;;
66073;SDS011;52859;48.104;11.574;2022-08-03T14:32:04;4.25;;;0.70;;
66073;SDS011;52859;48.104;11.574;2022-08-03T14:34:38;1.23;;;0.93;;
66073;SDS011;52859;48.104;11.574;2022-08-03T14:37:04;2.50;;;0.70;;
66073;SDS011;52859;48.104;11.574;2022-08-03T14:39:31;1.58;;;0.90;;
66073;SDS011;52859;48.104;11.574;2022-08-03T14:42:17;0.77;;;0.70;;
66073;SDS011;52859;48.104;11.574;2022-08-03T14:44:45;0.77;;;0.60;;
66073;SDS011;52859;48.104;11.574;2022-08-03T14:47:12;1.90;;;0.75;;
66073;SDS011;52859;48.104;11.574;2022-08-03T14:49:39;1.67;;;0.90;;
66073;SDS011;52859;48.104;11.574;2022-08-03T14:52:25;0.70;;;0.70;;
66073;SDS011;52859;48.104;11.574;2022-08-03T14:54:52;1.33;;;0.95;;
66073;SDS011;52859;48.104;11.574;2022-08-03T14:57:18;3.28;;;1.00;;
66073;SDS011;52859;48.104;11.574;2022-08-03T14:59:45;2.47;;;0.80;;
66073;SDS011;52859;48.104;11.574;2022-08-03T15:02:22;1.23;;;0.80;;
66073;SDS011;52859;48.104;11.574;2022-08-03T15:04:49;3.58;;;0.80;;
66073;SDS011;52859;48.104;11.574;2022-08-03T15:07:16;1.42;;;0.93;;
66073;SDS011;52859;48.104;11.574;2022-08-03T15:09:43;1.23;;;0.73;;
66073;SDS011;52859;48.104;11.574;2022-08-03T15:12:09;3.45;;;0.90;;
66073;SDS011;52859;48.104;11.574;2022-08-03T15:14:35;0.95;;;0.82;;
66073;SDS011;52859;48.104;11.574;2022-08-03T15:17:03;1.08;;;0.82;;
66073;SDS011;52859;48.104;11.574;2022-08-03T15:19:29;2.88;;;0.98;;
66073;SDS011;52859;48.104;11.574;2022-08-03T15:22:16;1.13;;;1.02;;
66073;SDS011;52859;48.104;11.574;2022-08-03T15:24:46;1.30;;;0.80;;
66073;SDS011;52859;48.104;11.574;2022-08-03T15:27:12;2.05;;;0.90;;